sensor_id;sensor_type;location;lat;lon;timestamp;pressure;altitude;pressure_sealevel;temperature;humidity
43480;BME280;29067;35.492;-97.520;2023-03-20T00:00:47;98287.20;;;5.66;21.69
43480;BME280;29067;35.492;-97.520;2023-03-20T00:03:17;98288.62;;;4.99;21.87
43480;BME280;29067;35.492;-97.520;2023-03-20T00:05:44;98279.70;;;5.65;22.21
43480;BME280;29067;35.492;-97.520;2023-03-20T00:08:12;98277.94;;;4.74;22.77
43480;BME280;29067;35.492;-97.520;2023-03-20T00:10:42;98275.49;;;5.48;22.09
43480;BME280;29067;35.492;-97.520;2023-03-20T00:13:14;98279.45;;;5.09;22.38
43480;BME280;29067;35.492;-97.520;2023-03-20T00:15:45;98273.96;;;6.25;22.21
43480;BME280;29067;35.492;-97.520;2023-03-20T00:18:15;98275.62;;;5.52;22.42
43480;BME280;29067;35.492;-97.520;2023-03-20T00:20:43;98263.87;;;7.02;22.03
43480;BME280;29067;35.492;-97.520;2023-03-20T00:23:12;98270.97;;;4.78;22.86
43480;BME280;29067;35.492;-97.520;2023-03-20T00:25:41;98270.01;;;4.43;23.02
43480;BME280;29067;35.492;-97.520;2023-03-20T00:28:30;98271.85;;;4.47;22.88
43480;BME280;29067;35.492;-97.520;2023-03-20T00:31:02;98271.51;;;5.14;23.33
43480;BME280;29067;35.492;-97.520;2023-03-20T00:33:31;98270.45;;;5.09;22.58
43480;BME280;29067;35.492;-97.520;2023-03-20T00:35:59;98271.85;;;3.90;23.31
43480;BME280;29067;35.492;-97.520;2023-03-20T00:38:27;98263.66;;;5.22;23.03
43480;BME280;29067;35.492;-97.520;2023-03-20T00:40:56;98259.71;;;5.06;23.12
43480;BME280;29067;35.492;-97.520;2023-03-20T00:43:24;98257.57;;;4.56;23.79
43480;BME280;29067;35.492;-97.520;2023-03-20T00:45:52;98257.78;;;5.33;23.64
43480;BME280;29067;35.492;-97.520;2023-03-20T00:48:20;98254.48;;;4.70;23.44
43480;BME280;29067;35.492;-97.520;2023-03-20T00:50:48;98256.32;;;5.39;23.60
43480;BME280;29067;35.492;-97.520;2023-03-20T00:53:16;98256.83;;;5.29;23.55
43480;BME280;29067;35.492;-97.520;2023-03-20T00:55:44;98253.23;;;6.22;23.37
43480;BME280;29067;35.492;-97.520;2023-03-20T00:58:12;98251.71;;;5.09;23.76
43480;BME280;29067;35.492;-97.520;2023-03-20T01:00:42;98256.85;;;4.91;23.58
43480;BME280;29067;35.492;-97.520;2023-03-20T01:03:14;98249.21;;;4.72;23.63
43480;BME280;29067;35.492;-97.520;2023-03-20T01:05:44;98248.94;;;4.01;24.11
43480;BME280;29067;35.492;-97.520;2023-03-20T01:08:15;98246.10;;;4.65;23.83
43480;BME280;29067;35.492;-97.520;2023-03-20T01:10:44;98252.04;;;4.73;24.43
43480;BME280;29067;35.492;-97.520;2023-03-20T01:13:18;98251.44;;;4.13;24.21
43480;BME280;29067;35.492;-97.520;2023-03-20T01:15:48;98247.09;;;5.20;23.45
43480;BME280;29067;35.492;-97.520;2023-03-20T01:18:18;98241.16;;;4.85;23.92
43480;BME280;29067;35.492;-97.520;2023-03-20T01:20:47;98242.45;;;4.79;23.71
43480;BME280;29067;35.492;-97.520;2023-03-20T01:23:16;98244.23;;;5.56;23.84
43480;BME280;29067;35.492;-97.520;2023-03-20T01:25:44;98239.40;;;4.60;24.09
43480;BME280;29067;35.492;-97.520;2023-03-20T01:28:15;98236.52;;;5.89;23.74
43480;BME280;29067;35.492;-97.520;2023-03-20T01:30:46;98238.08;;;4.57;24.19
43480;BME280;29067;35.492;-97.520;2023-03-20T01:33:17;98234.83;;;4.42;24.64
43480;BME280;29067;35.492;-97.520;2023-03-20T01:35:46;98235.72;;;3.87;24.93
43480;BME280;29067;35.492;-97.520;2023-03-20T01:38:19;98236.31;;;3.86;25.11
43480;BME280;29067;35.492;-97.520;2023-03-20T01:40:52;98231.04;;;3.74;25.28
43480;BME280;29067;35.492;-97.520;2023-03-20T01:43:23;98225.36;;;4.08;24.71
43480;BME280;29067;35.492;-97.520;2023-03-20T01:45:56;98228.61;;;3.50;25.25
43480;BME280;29067;35.492;-97.520;2023-03-20T01:48:35;98224.83;;;4.66;24.91
43480;BME280;29067;35.492;-97.520;2023-03-20T01:51:24;98227.47;;;4.50;25.26
43480;BME280;29067;35.492;-97.520;2023-03-20T01:53:55;98226.72;;;2.67;25.85
43480;BME280;29067;35.492;-97.520;2023-03-20T01:56:25;98225.52;;;3.03;25.88
43480;BME280;29067;35.492;-97.520;2023-03-20T01:58:57;98225.10;;;3.84;25.69
43480;BME280;29067;35.492;-97.520;2023-03-20T02:01:27;98223.92;;;3.56;25.74
43480;BME280;29067;35.492;-97.520;2023-03-20T02:03:56;98223.40;;;3.64;26.09
43480;BME280;29067;35.492;-97.520;2023-03-20T02:06:25;98228.00;;;2.88;26.50
43480;BME280;29067;35.492;-97.520;2023-03-20T02:08:53;98224.64;;;2.41;27.44
43480;BME280;29067;35.492;-97.520;2023-03-20T02:11:24;98223.59;;;2.91;26.75
43480;BME280;29067;35.492;-97.520;2023-03-20T02:13:54;98216.95;;;3.93;26.24
43480;BME280;29067;35.492;-97.520;2023-03-20T02:16:23;98220.70;;;3.54;26.43
43480;BME280;29067;35.492;-97.520;2023-03-20T02:18:53;98220.96;;;3.62;26.47
43480;BME280;29067;35.492;-97.520;2023-03-20T02:22:30;98222.35;;;4.11;26.41
43480;BME280;29067;35.492;-97.520;2023-03-20T02:25:37;98229.54;;;2.55;27.04
43480;BME280;29067;35.492;-97.520;2023-03-20T02:28:38;98225.52;;;2.71;27.32
43480;BME280;29067;35.492;-97.520;2023-03-20T02:32:08;98228.24;;;1.15;28.14
43480;BME280;29067;35.492;-97.520;2023-03-20T02:35:01;98227.26;;;2.38;27.43
43480;BME280;29067;35.492;-97.520;2023-03-20T02:38:03;98227.31;;;1.82;27.90
43480;BME280;29067;35.492;-97.520;2023-03-20T02:40:43;98229.07;;;1.70;28.03
43480;BME280;29067;35.492;-97.520;2023-03-20T02:43:19;98231.64;;;1.11;28.08
43480;BME280;29067;35.492;-97.520;2023-03-20T02:45:54;98237.26;;;0.08;29.06
43480;BME280;29067;35.492;-97.520;2023-03-20T02:48:34;98227.20;;;2.43;27.85
43480;BME280;29067;35.492;-97.520;2023-03-20T02:51:09;98232.45;;;1.11;28.60
43480;BME280;29067;35.492;-97.520;2023-03-20T02:53:43;98228.26;;;1.55;28.46
43480;BME280;29067;35.492;-97.520;2023-03-20T02:56:21;98223.31;;;1.39;27.82
43480;BME280;29067;35.492;-97.520;2023-03-20T02:58:59;98218.83;;;2.10;27.82
43480;BME280;29067;35.492;-97.520;2023-03-20T03:01:34;98225.63;;;-0.91;29.06
43480;BME280;29067;35.492;-97.520;2023-03-20T03:04:08;98222.56;;;1.11;28.07
43480;BME280;29067;35.492;-97.520;2023-03-20T03:06:41;98224.01;;;1.85;28.22
43480;BME280;29067;35.492;-97.520;2023-03-20T03:09:13;98225.39;;;0.65;28.66
43480;BME280;29067;35.492;-97.520;2023-03-20T03:11:49;98222.15;;;0.99;28.85
43480;BME280;29067;35.492;-97.520;2023-03-20T03:14:25;98221.62;;;0.38;28.88
43480;BME280;29067;35.492;-97.520;2023-03-20T03:16:57;98224.91;;;-0.05;29.39
43480;BME280;29067;35.492;-97.520;2023-03-20T03:19:28;98219.97;;;-0.38;29.54
43480;BME280;29067;35.492;-97.520;2023-03-20T03:21:57;98226.04;;;0.15;29.26
43480;BME280;29067;35.492;-97.520;2023-03-20T03:24:30;98218.65;;;1.28;28.79
43480;BME280;29067;35.492;-97.520;2023-03-20T03:27:00;98217.20;;;0.29;29.40
43480;BME280;29067;35.492;-97.520;2023-03-20T03:29:32;98219.02;;;0.27;29.28
43480;BME280;29067;35.492;-97.520;2023-03-20T03:32:01;98212.86;;;-0.59;29.52
43480;BME280;29067;35.492;-97.520;2023-03-20T03:34:32;98211.84;;;0.37;29.22
43480;BME280;29067;35.492;-97.520;2023-03-20T03:37:04;98201.71;;;1.10;28.67
43480;BME280;29067;35.492;-97.520;2023-03-20T03:39:38;98190.02;;;0.30;28.29
43480;BME280;29067;35.492;-97.520;2023-03-20T03:42:11;98191.75;;;0.21;29.38
43480;BME280;29067;35.492;-97.520;2023-03-20T03:44:52;98184.42;;;0.41;29.49
43480;BME280;29067;35.492;-97.520;2023-03-20T03:47:26;98180.52;;;0.34;29.07
43480;BME280;29067;35.492;-97.520;2023-03-20T03:50:01;98175.89;;;0.94;29.25
43480;BME280;29067;35.492;-97.520;2023-03-20T03:52:31;98169.36;;;0.31;29.70
43480;BME280;29067;35.492;-97.520;2023-03-20T03:55:03;98170.68;;;0.54;29.35
43480;BME280;29067;35.492;-97.520;2023-03-20T03:57:35;98156.83;;;-0.66;30.39
43480;BME280;29067;35.492;-97.520;2023-03-20T04:00:06;98158.35;;;-0.79;30.66
43480;BME280;29067;35.492;-97.520;2023-03-20T04:02:35;98154.29;;;0.40;30.12
43480;BME280;29067;35.492;-97.520;2023-03-20T04:05:05;98147.94;;;-0.29;30.10
43480;BME280;29067;35.492;-97.520;2023-03-20T04:07:34;98139.77;;;0.63;30.12
43480;BME280;29067;35.492;-97.520;2023-03-20T04:10:02;98142.63;;;0.31;30.04
43480;BME280;29067;35.492;-97.520;2023-03-20T04:12:34;98134.71;;;0.03;30.65
43480;BME280;29067;35.492;-97.520;2023-03-20T04:15:04;98136.58;;;-0.23;30.60
43480;BME280;29067;35.492;-97.520;2023-03-20T04:17:32;98140.30;;;0.37;29.97
43480;BME280;29067;35.492;-97.520;2023-03-20T04:20:00;98130.60;;;-0.73;30.58
43480;BME280;29067;35.492;-97.520;2023-03-20T04:22:29;98140.63;;;-0.59;30.19
43480;BME280;29067;35.492;-97.520;2023-03-20T04:24:57;98134.14;;;-0.67;30.36
43480;BME280;29067;35.492;-97.520;2023-03-20T04:27:25;98137.56;;;0.29;30.06
43480;BME280;29067;35.492;-97.520;2023-03-20T04:29:53;98134.41;;;-0.03;29.89
43480;BME280;29067;35.492;-97.520;2023-03-20T04:32:21;98130.47;;;0.18;29.89
43480;BME280;29067;35.492;-97.520;2023-03-20T04:34:50;98126.55;;;0.15;30.06
43480;BME280;29067;35.492;-97.520;2023-03-20T04:37:18;98122.32;;;-0.64;30.26
43480;BME280;29067;35.492;-97.520;2023-03-20T04:39:46;98126.86;;;-0.05;29.86
43480;BME280;29067;35.492;-97.520;2023-03-20T04:42:14;98119.23;;;0.54;29.76
43480;BME280;29067;35.492;-97.520;2023-03-20T04:44:43;98121.13;;;-0.45;30.59
43480;BME280;29067;35.492;-97.520;2023-03-20T04:47:11;98120.86;;;0.45;30.34
43480;BME280;29067;35.492;-97.520;2023-03-20T04:49:38;98119.61;;;0.59;29.99
43480;BME280;29067;35.492;-97.520;2023-03-20T04:52:06;98128.30;;;-1.25;31.57
43480;BME280;29067;35.492;-97.520;2023-03-20T04:54:35;98128.22;;;-1.29;31.80
43480;BME280;29067;35.492;-97.520;2023-03-20T04:57:03;98131.04;;;-1.33;32.60
43480;BME280;29067;35.492;-97.520;2023-03-20T04:59:31;98126.38;;;-0.74;32.28
43480;BME280;29067;35.492;-97.520;2023-03-20T05:01:59;98117.62;;;-1.08;32.58
43480;BME280;29067;35.492;-97.520;2023-03-20T05:04:27;98113.12;;;-0.60;32.58
43480;BME280;29067;35.492;-97.520;2023-03-20T05:06:55;98102.25;;;-0.79;32.79
43480;BME280;29067;35.492;-97.520;2023-03-20T05:09:24;98106.38;;;-1.41;33.37
43480;BME280;29067;35.492;-97.520;2023-03-20T05:11:52;98101.09;;;-1.36;33.70
43480;BME280;29067;35.492;-97.520;2023-03-20T05:14:20;98092.01;;;-0.62;33.43
43480;BME280;29067;35.492;-97.520;2023-03-20T05:16:48;98089.15;;;-1.29;34.23
43480;BME280;29067;35.492;-97.520;2023-03-20T05:19:16;98079.94;;;-1.76;34.34
43480;BME280;29067;35.492;-97.520;2023-03-20T05:21:44;98089.86;;;-0.33;33.82
43480;BME280;29067;35.492;-97.520;2023-03-20T05:24:12;98079.37;;;-1.26;34.66
43480;BME280;29067;35.492;-97.520;2023-03-20T05:26:40;98089.80;;;-1.75;34.73
43480;BME280;29067;35.492;-97.520;2023-03-20T05:29:09;98082.03;;;-1.45;35.30
43480;BME280;29067;35.492;-97.520;2023-03-20T05:31:37;98072.16;;;-0.35;34.32
43480;BME280;29067;35.492;-97.520;2023-03-20T05:34:05;98072.60;;;-1.14;34.71
43480;BME280;29067;35.492;-97.520;2023-03-20T05:36:33;98070.56;;;-1.94;35.78
43480;BME280;29067;35.492;-97.520;2023-03-20T05:39:01;98067.17;;;-1.26;34.98
43480;BME280;29067;35.492;-97.520;2023-03-20T05:41:29;98063.52;;;-0.56;34.67
43480;BME280;29067;35.492;-97.520;2023-03-20T05:43:57;98046.68;;;-0.61;34.59
43480;BME280;29067;35.492;-97.520;2023-03-20T05:46:25;98045.53;;;-0.73;34.59
43480;BME280;29067;35.492;-97.520;2023-03-20T05:48:53;98047.16;;;-0.56;35.08
43480;BME280;29067;35.492;-97.520;2023-03-20T05:51:22;98048.02;;;-0.54;35.41
43480;BME280;29067;35.492;-97.520;2023-03-20T05:53:50;98043.15;;;-1.03;35.41
43480;BME280;29067;35.492;-97.520;2023-03-20T05:56:18;98039.04;;;-1.08;35.68
43480;BME280;29067;35.492;-97.520;2023-03-20T05:58:46;98042.14;;;-0.21;34.87
43480;BME280;29067;35.492;-97.520;2023-03-20T06:01:14;98036.06;;;-0.26;34.87
43480;BME280;29067;35.492;-97.520;2023-03-20T06:03:42;98039.41;;;-1.28;35.84
43480;BME280;29067;35.492;-97.520;2023-03-20T06:06:10;98025.77;;;-1.14;35.75
43480;BME280;29067;35.492;-97.520;2023-03-20T06:08:39;98030.67;;;-0.73;35.83
43480;BME280;29067;35.492;-97.520;2023-03-20T06:11:07;98025.88;;;-1.89;37.07
43480;BME280;29067;35.492;-97.520;2023-03-20T06:13:36;98026.30;;;-0.98;36.56
43480;BME280;29067;35.492;-97.520;2023-03-20T06:16:04;98012.80;;;-0.64;36.04
43480;BME280;29067;35.492;-97.520;2023-03-20T06:18:33;98011.63;;;-0.70;35.97
43480;BME280;29067;35.492;-97.520;2023-03-20T06:21:01;98003.34;;;-1.21;36.09
43480;BME280;29067;35.492;-97.520;2023-03-20T06:23:29;98007.36;;;-0.65;36.11
43480;BME280;29067;35.492;-97.520;2023-03-20T06:25:57;97992.99;;;-0.54;36.29
43480;BME280;29067;35.492;-97.520;2023-03-20T06:28:25;97987.70;;;-1.26;36.87
43480;BME280;29067;35.492;-97.520;2023-03-20T06:30:53;97996.95;;;-1.15;37.41
43480;BME280;29067;35.492;-97.520;2023-03-20T06:33:21;97984.71;;;-1.16;37.13
43480;BME280;29067;35.492;-97.520;2023-03-20T06:35:49;97980.23;;;-0.49;36.66
43480;BME280;29067;35.492;-97.520;2023-03-20T06:38:17;97969.01;;;-0.46;36.47
43480;BME280;29067;35.492;-97.520;2023-03-20T06:40:46;97969.21;;;-0.84;36.71
43480;BME280;29067;35.492;-97.520;2023-03-20T06:43:14;97966.20;;;-0.30;36.08
43480;BME280;29067;35.492;-97.520;2023-03-20T06:45:42;97967.56;;;-0.52;36.38
43480;BME280;29067;35.492;-97.520;2023-03-20T06:48:10;97973.80;;;-1.35;37.45
43480;BME280;29067;35.492;-97.520;2023-03-20T06:50:38;97959.22;;;-0.49;36.55
43480;BME280;29067;35.492;-97.520;2023-03-20T06:53:06;97961.68;;;-1.48;37.07
43480;BME280;29067;35.492;-97.520;2023-03-20T06:55:34;97969.69;;;-1.26;36.94
43480;BME280;29067;35.492;-97.520;2023-03-20T06:58:03;97978.69;;;-1.12;37.49
43480;BME280;29067;35.492;-97.520;2023-03-20T07:00:31;97971.59;;;-0.79;37.03
43480;BME280;29067;35.492;-97.520;2023-03-20T07:02:59;97979.23;;;-0.99;37.01
43480;BME280;29067;35.492;-97.520;2023-03-20T07:05:27;97967.72;;;0.49;36.08
43480;BME280;29067;35.492;-97.520;2023-03-20T07:07:56;97968.50;;;-1.33;36.91
43480;BME280;29067;35.492;-97.520;2023-03-20T07:10:24;97966.23;;;-1.31;37.39
43480;BME280;29067;35.492;-97.520;2023-03-20T07:12:52;97966.11;;;-1.30;37.27
43480;BME280;29067;35.492;-97.520;2023-03-20T07:15:20;97959.25;;;-1.52;36.56
43480;BME280;29067;35.492;-97.520;2023-03-20T07:17:48;97963.77;;;-1.49;36.39
43480;BME280;29067;35.492;-97.520;2023-03-20T07:20:16;97962.44;;;-0.67;36.71
43480;BME280;29067;35.492;-97.520;2023-03-20T07:22:44;97966.09;;;-0.70;36.44
43480;BME280;29067;35.492;-97.520;2023-03-20T07:25:14;97964.89;;;-1.41;37.49
43480;BME280;29067;35.492;-97.520;2023-03-20T07:27:43;97968.15;;;-2.06;38.11
43480;BME280;29067;35.492;-97.520;2023-03-20T07:30:12;97968.63;;;-1.24;37.61
43480;BME280;29067;35.492;-97.520;2023-03-20T07:32:40;97960.35;;;-1.21;37.74
43480;BME280;29067;35.492;-97.520;2023-03-20T07:35:08;97959.59;;;-1.63;38.01
43480;BME280;29067;35.492;-97.520;2023-03-20T07:37:36;97968.60;;;-2.38;38.48
43480;BME280;29067;35.492;-97.520;2023-03-20T07:40:05;97957.90;;;-2.06;37.97
43480;BME280;29067;35.492;-97.520;2023-03-20T07:42:34;97962.86;;;-2.45;38.52
43480;BME280;29067;35.492;-97.520;2023-03-20T07:45:02;97960.75;;;-1.55;37.86
43480;BME280;29067;35.492;-97.520;2023-03-20T07:47:30;97954.39;;;-2.28;38.35
43480;BME280;29067;35.492;-97.520;2023-03-20T07:49:58;97953.34;;;-1.94;38.15
43480;BME280;29067;35.492;-97.520;2023-03-20T07:52:26;97950.64;;;-1.88;37.99
43480;BME280;29067;35.492;-97.520;2023-03-20T07:54:54;97955.96;;;-2.43;38.50
43480;BME280;29067;35.492;-97.520;2023-03-20T07:57:23;97950.24;;;-1.05;37.79
43480;BME280;29067;35.492;-97.520;2023-03-20T07:59:51;97939.05;;;-2.44;38.64
43480;BME280;29067;35.492;-97.520;2023-03-20T08:02:19;97942.96;;;-1.61;38.29
43480;BME280;29067;35.492;-97.520;2023-03-20T08:04:47;97941.38;;;-1.42;38.16
43480;BME280;29067;35.492;-97.520;2023-03-20T08:07:15;97931.58;;;-2.40;39.16
43480;BME280;29067;35.492;-97.520;2023-03-20T08:09:43;97936.74;;;-1.64;38.30
43480;BME280;29067;35.492;-97.520;2023-03-20T08:12:11;97935.44;;;-2.17;38.90
43480;BME280;29067;35.492;-97.520;2023-03-20T08:14:39;97930.00;;;-2.51;39.14
43480;BME280;29067;35.492;-97.520;2023-03-20T08:17:08;97931.67;;;-2.21;39.05
43480;BME280;29067;35.492;-97.520;2023-03-20T08:19:36;97928.54;;;-2.03;39.05
43480;BME280;29067;35.492;-97.520;2023-03-20T08:22:04;97920.02;;;-1.03;37.62
43480;BME280;29067;35.492;-97.520;2023-03-20T08:24:32;97919.58;;;-2.52;39.03
43480;BME280;29067;35.492;-97.520;2023-03-20T08:27:00;97914.22;;;-1.73;38.83
43480;BME280;29067;35.492;-97.520;2023-03-20T08:29:28;97906.59;;;-1.54;38.82
43480;BME280;29067;35.492;-97.520;2023-03-20T08:31:56;97915.36;;;-2.30;39.00
43480;BME280;29067;35.492;-97.520;2023-03-20T08:34:24;97922.22;;;-2.28;39.24
43480;BME280;29067;35.492;-97.520;2023-03-20T08:36:53;97912.82;;;-1.52;38.97
43480;BME280;29067;35.492;-97.520;2023-03-20T08:39:21;97936.96;;;-2.42;40.17
43480;BME280;29067;35.492;-97.520;2023-03-20T08:41:49;97911.18;;;-2.19;39.75
43480;BME280;29067;35.492;-97.520;2023-03-20T08:44:17;97908.00;;;-2.55;40.50
43480;BME280;29067;35.492;-97.520;2023-03-20T08:46:45;97905.36;;;-2.04;39.75
43480;BME280;29067;35.492;-97.520;2023-03-20T08:49:13;97901.57;;;-2.83;40.23
43480;BME280;29067;35.492;-97.520;2023-03-20T08:51:41;97913.94;;;-1.99;40.12
43480;BME280;29067;35.492;-97.520;2023-03-20T08:54:09;97915.12;;;-2.25;40.28
43480;BME280;29067;35.492;-97.520;2023-03-20T08:56:38;97906.07;;;-2.15;40.21
43480;BME280;29067;35.492;-97.520;2023-03-20T08:59:06;97907.94;;;-3.04;39.90
43480;BME280;29067;35.492;-97.520;2023-03-20T09:01:34;97894.94;;;-2.37;39.70
43480;BME280;29067;35.492;-97.520;2023-03-20T09:04:02;97891.61;;;-2.58;40.42
43480;BME280;29067;35.492;-97.520;2023-03-20T09:06:30;97889.53;;;-2.34;39.78
43480;BME280;29067;35.492;-97.520;2023-03-20T09:08:58;97882.72;;;-2.18;39.36
43480;BME280;29067;35.492;-97.520;2023-03-20T09:11:26;97879.88;;;-2.55;39.91
43480;BME280;29067;35.492;-97.520;2023-03-20T09:13:55;97881.36;;;-2.53;39.66
43480;BME280;29067;35.492;-97.520;2023-03-20T09:16:23;97883.28;;;-2.50;39.76
43480;BME280;29067;35.492;-97.520;2023-03-20T09:18:51;97869.71;;;-1.93;38.96
43480;BME280;29067;35.492;-97.520;2023-03-20T09:21:19;97875.92;;;-2.67;39.96
43480;BME280;29067;35.492;-97.520;2023-03-20T09:23:47;97872.04;;;-1.57;39.54
43480;BME280;29067;35.492;-97.520;2023-03-20T09:26:15;97875.36;;;-2.89;40.70
43480;BME280;29067;35.492;-97.520;2023-03-20T09:28:43;97867.92;;;-2.30;40.06
43480;BME280;29067;35.492;-97.520;2023-03-20T09:31:12;97860.44;;;-2.45;40.03
43480;BME280;29067;35.492;-97.520;2023-03-20T09:33:40;97862.18;;;-3.47;41.20
43480;BME280;29067;35.492;-97.520;2023-03-20T09:36:08;97862.97;;;-1.25;39.16
43480;BME280;29067;35.492;-97.520;2023-03-20T09:38:36;97851.60;;;-1.92;40.10
43480;BME280;29067;35.492;-97.520;2023-03-20T09:41:05;97858.15;;;-3.13;41.50
43480;BME280;29067;35.492;-97.520;2023-03-20T09:43:43;97850.67;;;-3.27;41.85
43480;BME280;29067;35.492;-97.520;2023-03-20T09:46:23;97858.78;;;-3.45;42.82
43480;BME280;29067;35.492;-97.520;2023-03-20T09:49:01;97847.71;;;-1.72;40.99
43480;BME280;29067;35.492;-97.520;2023-03-20T09:51:37;97844.01;;;-1.69;40.70
43480;BME280;29067;35.492;-97.520;2023-03-20T09:54:12;97845.94;;;-3.21;42.24
43480;BME280;29067;35.492;-97.520;2023-03-20T09:56:45;97844.20;;;-3.54;42.61
43480;BME280;29067;35.492;-97.520;2023-03-20T09:59:15;97840.99;;;-2.26;42.14
43480;BME280;29067;35.492;-97.520;2023-03-20T10:01:49;97840.69;;;-3.03;42.73
43480;BME280;29067;35.492;-97.520;2023-03-20T10:04:18;97839.04;;;-3.18;42.65
43480;BME280;29067;35.492;-97.520;2023-03-20T10:06:47;97838.32;;;-2.94;42.41
43480;BME280;29067;35.492;-97.520;2023-03-20T10:09:16;97837.82;;;-1.70;41.91
43480;BME280;29067;35.492;-97.520;2023-03-20T10:12:00;97840.26;;;-2.03;41.48
43480;BME280;29067;35.492;-97.520;2023-03-20T10:14:36;97837.28;;;-2.62;42.35
43480;BME280;29067;35.492;-97.520;2023-03-20T10:17:18;97843.08;;;-3.42;43.35
43480;BME280;29067;35.492;-97.520;2023-03-20T10:19:51;97848.49;;;-2.32;42.04
43480;BME280;29067;35.492;-97.520;2023-03-20T10:22:26;97840.69;;;-1.62;41.68
43480;BME280;29067;35.492;-97.520;2023-03-20T10:24:58;97847.50;;;-2.67;42.75
43480;BME280;29067;35.492;-97.520;2023-03-20T10:27:33;97841.87;;;-1.69;41.94
43480;BME280;29067;35.492;-97.520;2023-03-20T10:30:11;97840.75;;;-2.85;42.70
43480;BME280;29067;35.492;-97.520;2023-03-20T10:32:50;97841.10;;;-2.65;43.21
43480;BME280;29067;35.492;-97.520;2023-03-20T10:35:29;97832.74;;;-2.10;42.21
43480;BME280;29067;35.492;-97.520;2023-03-20T10:38:12;97844.15;;;-3.06;43.14
43480;BME280;29067;35.492;-97.520;2023-03-20T10:40:45;97840.17;;;-2.11;42.29
43480;BME280;29067;35.492;-97.520;2023-03-20T10:43:17;97845.77;;;-1.54;41.68
43480;BME280;29067;35.492;-97.520;2023-03-20T10:45:48;97837.49;;;-1.38;42.01
43480;BME280;29067;35.492;-97.520;2023-03-20T10:48:22;97842.05;;;-3.15;43.08
43480;BME280;29067;35.492;-97.520;2023-03-20T10:50:54;97834.25;;;-2.78;43.05
43480;BME280;29067;35.492;-97.520;2023-03-20T10:53:30;97842.05;;;-3.09;43.75
43480;BME280;29067;35.492;-97.520;2023-03-20T10:56:04;97828.38;;;-2.67;43.21
43480;BME280;29067;35.492;-97.520;2023-03-20T10:58:36;97832.09;;;-2.86;43.87
43480;BME280;29067;35.492;-97.520;2023-03-20T11:01:06;97831.45;;;-1.88;42.44
43480;BME280;29067;35.492;-97.520;2023-03-20T11:03:34;97824.78;;;-2.42;42.93
43480;BME280;29067;35.492;-97.520;2023-03-20T11:06:06;97824.44;;;-2.79;43.74
43480;BME280;29067;35.492;-97.520;2023-03-20T11:08:38;97821.51;;;-2.90;44.10
43480;BME280;29067;35.492;-97.520;2023-03-20T11:11:07;97827.82;;;-2.88;44.07
43480;BME280;29067;35.492;-97.520;2023-03-20T11:13:39;97820.24;;;-2.01;43.46
43480;BME280;29067;35.492;-97.520;2023-03-20T11:16:15;97822.45;;;-2.37;43.46
43480;BME280;29067;35.492;-97.520;2023-03-20T11:18:44;97827.54;;;-3.10;44.56
43480;BME280;29067;35.492;-97.520;2023-03-20T11:21:17;97827.05;;;-2.35;44.28
43480;BME280;29067;35.492;-97.520;2023-03-20T11:23:45;97831.55;;;-2.70;44.43
43480;BME280;29067;35.492;-97.520;2023-03-20T11:26:15;97823.38;;;-1.76;44.47
43480;BME280;29067;35.492;-97.520;2023-03-20T11:28:49;97821.99;;;-2.51;44.81
43480;BME280;29067;35.492;-97.520;2023-03-20T11:31:23;97827.14;;;-2.81;45.15
43480;BME280;29067;35.492;-97.520;2023-03-20T11:34:00;97821.29;;;-2.93;46.08
43480;BME280;29067;35.492;-97.520;2023-03-20T11:36:35;97820.45;;;-3.06;46.05
43480;BME280;29067;35.492;-97.520;2023-03-20T11:39:09;97829.74;;;-2.62;45.90
43480;BME280;29067;35.492;-97.520;2023-03-20T11:41:46;97823.63;;;-2.05;45.65
43480;BME280;29067;35.492;-97.520;2023-03-20T11:44:25;97822.93;;;-2.53;46.33
43480;BME280;29067;35.492;-97.520;2023-03-20T11:46:58;97821.16;;;-3.02;46.48
43480;BME280;29067;35.492;-97.520;2023-03-20T11:49:26;97819.81;;;-2.15;45.73
43480;BME280;29067;35.492;-97.520;2023-03-20T11:51:59;97827.90;;;-2.78;46.29
43480;BME280;29067;35.492;-97.520;2023-03-20T11:54:29;97822.54;;;-3.05;47.05
43480;BME280;29067;35.492;-97.520;2023-03-20T11:56:58;97824.74;;;-2.27;46.10
43480;BME280;29067;35.492;-97.520;2023-03-20T11:59:30;97837.18;;;-2.81;45.54
43480;BME280;29067;35.492;-97.520;2023-03-20T12:03:00;97827.49;;;-3.02;46.71
43480;BME280;29067;35.492;-97.520;2023-03-20T12:05:31;97829.17;;;-2.90;45.78
43480;BME280;29067;35.492;-97.520;2023-03-20T12:08:02;97829.01;;;-2.57;45.90
43480;BME280;29067;35.492;-97.520;2023-03-20T12:10:37;97831.44;;;-2.73;46.02
43480;BME280;29067;35.492;-97.520;2023-03-20T12:13:11;97831.20;;;-2.68;45.90
43480;BME280;29067;35.492;-97.520;2023-03-20T12:15:45;97841.55;;;-3.37;46.66
43480;BME280;29067;35.492;-97.520;2023-03-20T12:18:19;97831.91;;;-2.45;45.92
43480;BME280;29067;35.492;-97.520;2023-03-20T12:21:02;97828.24;;;-2.21;45.45
43480;BME280;29067;35.492;-97.520;2023-03-20T12:23:32;97834.56;;;-2.59;45.50
43480;BME280;29067;35.492;-97.520;2023-03-20T12:26:04;97830.18;;;-2.57;45.53
43480;BME280;29067;35.492;-97.520;2023-03-20T12:28:37;97829.11;;;-2.28;45.86
43480;BME280;29067;35.492;-97.520;2023-03-20T12:31:19;97831.11;;;-3.43;47.49
43480;BME280;29067;35.492;-97.520;2023-03-20T12:33:53;97831.19;;;-2.52;46.77
43480;BME280;29067;35.492;-97.520;2023-03-20T12:36:29;97831.00;;;-2.71;46.46
43480;BME280;29067;35.492;-97.520;2023-03-20T12:38:59;97824.58;;;-2.55;46.25
43480;BME280;29067;35.492;-97.520;2023-03-20T12:41:32;97824.25;;;-1.85;46.53
43480;BME280;29067;35.492;-97.520;2023-03-20T12:44:29;97827.11;;;-2.29;46.74
43480;BME280;29067;35.492;-97.520;2023-03-20T12:47:10;97823.03;;;-2.44;46.27
43480;BME280;29067;35.492;-97.520;2023-03-20T12:49:47;97829.29;;;-2.37;46.21
43480;BME280;29067;35.492;-97.520;2023-03-20T12:52:21;97819.03;;;-2.12;47.37
43480;BME280;29067;35.492;-97.520;2023-03-20T12:55:09;97819.94;;;-2.00;46.14
43480;BME280;29067;35.492;-97.520;2023-03-20T12:57:45;97820.96;;;-1.99;46.23
43480;BME280;29067;35.492;-97.520;2023-03-20T13:00:21;97819.14;;;-1.94;46.20
43480;BME280;29067;35.492;-97.520;2023-03-20T13:02:59;97816.36;;;-2.77;46.82
43480;BME280;29067;35.492;-97.520;2023-03-20T13:05:36;97821.94;;;-1.70;45.88